sensor_id;sensor_type;location;lat;lon;timestamp;pressure;altitude;pressure_sealevel;temperature;humidity
34482;BME280;20720;48.886;9.388;2023-08-01T00:01:17;97352.06;;;22.06;100.00
34482;BME280;20720;48.886;9.388;2023-08-01T00:03:42;97356.41;;;22.02;100.00
34482;BME280;20720;48.886;9.388;2023-08-01T00:06:08;97355.63;;;22.15;100.00
34482;BME280;20720;48.886;9.388;2023-08-01T00:08:33;97355.63;;;22.15;100.00
34482;BME280;20720;48.886;9.388;2023-08-01T00:10:59;97343.94;;;22.38;100.00
34482;BME280;20720;48.886;9.388;2023-08-01T00:13:24;97335.41;;;22.09;100.00
34482;BME280;20720;48.886;9.388;2023-08-01T00:15:49;97336.03;;;22.19;100.00
34482;BME280;20720;48.886;9.388;2023-08-01T00:18:14;97331.25;;;22.30;100.00
34482;BME280;20720;48.886;9.388;2023-08-01T00:20:39;97332.91;;;22.80;100.00
34482;BME280;20720;48.886;9.388;2023-08-01T00:23:05;97328.25;;;22.72;100.00
34482;BME280;20720;48.886;9.388;2023-08-01T00:25:30;97326.28;;;22.64;100.00
34482;BME280;20720;48.886;9.388;2023-08-01T00:27:55;97313.69;;;22.24;100.00
34482;BME280;20720;48.886;9.388;2023-08-01T00:30:21;97328.06;;;22.55;100.00
34482;BME280;20720;48.886;9.388;2023-08-01T00:32:46;97315.41;;;22.06;100.00
34482;BME280;20720;48.886;9.388;2023-08-01T00:35:11;97300.72;;;22.31;100.00
34482;BME280;20720;48.886;9.388;2023-08-01T00:37:37;97289.63;;;22.24;100.00
34482;BME280;20720;48.886;9.388;2023-08-01T00:40:02;97266.63;;;22.23;100.00
34482;BME280;20720;48.886;9.388;2023-08-01T00:42:28;97267.63;;;22.00;100.00
34482;BME280;20720;48.886;9.388;2023-08-01T00:44:53;97253.47;;;21.99;100.00
34482;BME280;20720;48.886;9.388;2023-08-01T00:47:19;97257.91;;;22.31;100.00
34482;BME280;20720;48.886;9.388;2023-08-01T00:49:44;97247.56;;;22.38;100.00
34482;BME280;20720;48.886;9.388;2023-08-01T00:52:10;97230.13;;;22.40;100.00
34482;BME280;20720;48.886;9.388;2023-08-01T00:54:36;97227.16;;;22.28;100.00
34482;BME280;20720;48.886;9.388;2023-08-01T00:57:05;97211.34;;;22.05;100.00
34482;BME280;20720;48.886;9.388;2023-08-01T00:59:31;97201.22;;;21.75;100.00
34482;BME280;20720;48.886;9.388;2023-08-01T01:01:57;97191.75;;;21.82;100.00
34482;BME280;20720;48.886;9.388;2023-08-01T01:04:23;97183.44;;;21.84;100.00
34482;BME280;20720;48.886;9.388;2023-08-01T01:06:57;97171.72;;;21.52;100.00
34482;BME280;20720;48.886;9.388;2023-08-01T01:09:28;97159.56;;;21.19;100.00
34482;BME280;20720;48.886;9.388;2023-08-01T01:11:53;97143.31;;;21.29;100.00
34482;BME280;20720;48.886;9.388;2023-08-01T01:14:19;97148.94;;;21.14;100.00
34482;BME280;20720;48.886;9.388;2023-08-01T01:16:44;97151.91;;;21.13;100.00
34482;BME280;20720;48.886;9.388;2023-08-01T01:19:09;97143.84;;;20.99;100.00
34482;BME280;20720;48.886;9.388;2023-08-01T01:21:37;97158.13;;;20.76;100.00
34482;BME280;20720;48.886;9.388;2023-08-01T01:24:04;97161.13;;;20.88;100.00
34482;BME280;20720;48.886;9.388;2023-08-01T01:26:32;97167.25;;;21.48;100.00
34482;BME280;20720;48.886;9.388;2023-08-01T01:28:58;97162.63;;;21.26;100.00
34482;BME280;20720;48.886;9.388;2023-08-01T01:31:23;97158.34;;;21.25;100.00
34482;BME280;20720;48.886;9.388;2023-08-01T01:33:49;97165.50;;;21.30;100.00
34482;BME280;20720;48.886;9.388;2023-08-01T01:36:14;97169.13;;;21.20;100.00
34482;BME280;20720;48.886;9.388;2023-08-01T01:38:39;97181.25;;;21.72;100.00
34482;BME280;20720;48.886;9.388;2023-08-01T01:41:05;97176.59;;;21.50;100.00
34482;BME280;20720;48.886;9.388;2023-08-01T01:43:30;97167.09;;;21.85;100.00
34482;BME280;20720;48.886;9.388;2023-08-01T01:45:55;97165.09;;;21.91;100.00
34482;BME280;20720;48.886;9.388;2023-08-01T01:48:20;97167.06;;;21.44;100.00
34482;BME280;20720;48.886;9.388;2023-08-01T01:50:46;97169.81;;;22.07;100.00
34482;BME280;20720;48.886;9.388;2023-08-01T01:53:11;97156.88;;;22.01;100.00
34482;BME280;20720;48.886;9.388;2023-08-01T01:55:36;97158.44;;;21.75;100.00
34482;BME280;20720;48.886;9.388;2023-08-01T01:58:02;97130.19;;;20.87;100.00
34482;BME280;20720;48.886;9.388;2023-08-01T02:00:27;97129.34;;;21.60;100.00
34482;BME280;20720;48.886;9.388;2023-08-01T02:02:52;97116.28;;;21.44;100.00
34482;BME280;20720;48.886;9.388;2023-08-01T02:05:17;97103.50;;;21.69;100.00
34482;BME280;20720;48.886;9.388;2023-08-01T02:07:43;97097.88;;;21.43;100.00
34482;BME280;20720;48.886;9.388;2023-08-01T02:10:08;97100.75;;;21.46;100.00
34482;BME280;20720;48.886;9.388;2023-08-01T02:12:34;97093.75;;;21.23;100.00
34482;BME280;20720;48.886;9.388;2023-08-01T02:15:00;97108.13;;;21.77;100.00
34482;BME280;20720;48.886;9.388;2023-08-01T02:17:26;97115.56;;;22.29;100.00
34482;BME280;20720;48.886;9.388;2023-08-01T02:19:51;97102.75;;;22.26;100.00
34482;BME280;20720;48.886;9.388;2023-08-01T02:22:17;97106.75;;;22.15;100.00
34482;BME280;20720;48.886;9.388;2023-08-01T02:24:42;97110.38;;;22.32;100.00
34482;BME280;20720;48.886;9.388;2023-08-01T02:27:07;97096.25;;;21.69;100.00
34482;BME280;20720;48.886;9.388;2023-08-01T02:29:32;97104.09;;;22.15;100.00
34482;BME280;20720;48.886;9.388;2023-08-01T02:31:58;97093.38;;;22.15;100.00
34482;BME280;20720;48.886;9.388;2023-08-01T02:34:23;97078.41;;;21.92;100.00
34482;BME280;20720;48.886;9.388;2023-08-01T02:36:48;97088.53;;;22.17;100.00
34482;BME280;20720;48.886;9.388;2023-08-01T02:39:13;97097.31;;;22.31;100.00
34482;BME280;20720;48.886;9.388;2023-08-01T02:41:39;97077.44;;;21.88;100.00
34482;BME280;20720;48.886;9.388;2023-08-01T02:44:04;97091.75;;;22.05;100.00
34482;BME280;20720;48.886;9.388;2023-08-01T02:46:29;97095.41;;;21.46;100.00
34482;BME280;20720;48.886;9.388;2023-08-01T02:48:55;97080.97;;;21.97;100.00
34482;BME280;20720;48.886;9.388;2023-08-01T02:51:20;97078.22;;;21.75;100.00
34482;BME280;20720;48.886;9.388;2023-08-01T02:53:45;97081.81;;;21.70;100.00
34482;BME280;20720;48.886;9.388;2023-08-01T02:56:10;97071.31;;;21.74;100.00
34482;BME280;20720;48.886;9.388;2023-08-01T02:58:36;97082.72;;;22.01;100.00
34482;BME280;20720;48.886;9.388;2023-08-01T03:01:06;97058.22;;;21.86;100.00
34482;BME280;20720;48.886;9.388;2023-08-01T03:03:32;97050.41;;;21.76;100.00
34482;BME280;20720;48.886;9.388;2023-08-01T03:05:57;97066.75;;;22.32;100.00
34482;BME280;20720;48.886;9.388;2023-08-01T03:08:22;97064.22;;;22.27;100.00
34482;BME280;20720;48.886;9.388;2023-08-01T03:10:48;97065.72;;;22.41;100.00
34482;BME280;20720;48.886;9.388;2023-08-01T03:13:14;97056.78;;;22.24;100.00
34482;BME280;20720;48.886;9.388;2023-08-01T03:15:39;97066.50;;;22.42;100.00
34482;BME280;20720;48.886;9.388;2023-08-01T03:18:04;97069.06;;;22.47;100.00
34482;BME280;20720;48.886;9.388;2023-08-01T03:20:29;97050.44;;;21.98;100.00
34482;BME280;20720;48.886;9.388;2023-08-01T03:22:55;97047.41;;;22.13;100.00
34482;BME280;20720;48.886;9.388;2023-08-01T03:25:20;97045.78;;;22.25;100.00
34482;BME280;20720;48.886;9.388;2023-08-01T03:27:45;97047.31;;;22.18;100.00
34482;BME280;20720;48.886;9.388;2023-08-01T03:30:11;97045.34;;;22.10;100.00
34482;BME280;20720;48.886;9.388;2023-08-01T03:32:36;97034.16;;;21.36;100.00
34482;BME280;20720;48.886;9.388;2023-08-01T03:35:05;97050.31;;;21.81;100.00
34482;BME280;20720;48.886;9.388;2023-08-01T03:37:30;97059.97;;;21.41;100.00
34482;BME280;20720;48.886;9.388;2023-08-01T03:39:55;97049.88;;;21.51;100.00
34482;BME280;20720;48.886;9.388;2023-08-01T03:42:21;97059.50;;;21.88;100.00
34482;BME280;20720;48.886;9.388;2023-08-01T03:44:46;97056.03;;;21.11;100.00
34482;BME280;20720;48.886;9.388;2023-08-01T03:47:11;97052.91;;;21.59;100.00
34482;BME280;20720;48.886;9.388;2023-08-01T03:49:36;97052.75;;;21.91;100.00
34482;BME280;20720;48.886;9.388;2023-08-01T03:52:02;97051.66;;;21.92;100.00
34482;BME280;20720;48.886;9.388;2023-08-01T03:54:27;97048.75;;;21.52;100.00
34482;BME280;20720;48.886;9.388;2023-08-01T03:56:52;97063.25;;;21.24;100.00
34482;BME280;20720;48.886;9.388;2023-08-01T03:59:18;97052.72;;;21.55;100.00
34482;BME280;20720;48.886;9.388;2023-08-01T04:01:43;97064.22;;;21.56;100.00
34482;BME280;20720;48.886;9.388;2023-08-01T04:04:08;97066.00;;;21.46;100.00
34482;BME280;20720;48.886;9.388;2023-08-01T04:06:34;97047.19;;;21.51;100.00
34482;BME280;20720;48.886;9.388;2023-08-01T04:08:59;97027.66;;;21.15;100.00
34482;BME280;20720;48.886;9.388;2023-08-01T04:11:25;97029.19;;;21.43;100.00
34482;BME280;20720;48.886;9.388;2023-08-01T04:13:51;97020.09;;;21.80;100.00
34482;BME280;20720;48.886;9.388;2023-08-01T04:16:17;97000.47;;;21.49;100.00
34482;BME280;20720;48.886;9.388;2023-08-01T04:18:42;97006.03;;;21.25;100.00
34482;BME280;20720;48.886;9.388;2023-08-01T04:21:07;96983.09;;;21.24;100.00
34482;BME280;20720;48.886;9.388;2023-08-01T04:23:33;96938.41;;;21.74;100.00
34482;BME280;20720;48.886;9.388;2023-08-01T04:25:58;96946.81;;;21.45;100.00
34482;BME280;20720;48.886;9.388;2023-08-01T04:28:24;96928.59;;;21.47;100.00
34482;BME280;20720;48.886;9.388;2023-08-01T04:30:50;96942.63;;;21.53;100.00
34482;BME280;20720;48.886;9.388;2023-08-01T04:33:16;96953.16;;;21.49;100.00
34482;BME280;20720;48.886;9.388;2023-08-01T04:35:41;96957.66;;;21.63;100.00
34482;BME280;20720;48.886;9.388;2023-08-01T04:38:07;96964.13;;;21.84;100.00
34482;BME280;20720;48.886;9.388;2023-08-01T04:40:33;96977.81;;;22.04;100.00
34482;BME280;20720;48.886;9.388;2023-08-01T04:42:59;96963.09;;;21.93;100.00
34482;BME280;20720;48.886;9.388;2023-08-01T04:45:24;96956.44;;;22.13;100.00
34482;BME280;20720;48.886;9.388;2023-08-01T04:47:49;96953.06;;;21.99;100.00
34482;BME280;20720;48.886;9.388;2023-08-01T04:50:15;96942.91;;;22.48;100.00
34482;BME280;20720;48.886;9.388;2023-08-01T04:52:40;96947.16;;;22.10;100.00
34482;BME280;20720;48.886;9.388;2023-08-01T04:55:06;96952.31;;;22.68;100.00
34482;BME280;20720;48.886;9.388;2023-08-01T04:57:31;96972.44;;;23.13;100.00
34482;BME280;20720;48.886;9.388;2023-08-01T04:59:56;96988.44;;;23.35;100.00
34482;BME280;20720;48.886;9.388;2023-08-01T05:02:22;97001.94;;;23.13;100.00
34482;BME280;20720;48.886;9.388;2023-08-01T05:04:47;97018.94;;;22.61;100.00
34482;BME280;20720;48.886;9.388;2023-08-01T05:07:12;97005.66;;;22.34;100.00
34482;BME280;20720;48.886;9.388;2023-08-01T05:09:37;97009.59;;;22.98;100.00
34482;BME280;20720;48.886;9.388;2023-08-01T05:12:03;97016.22;;;22.92;100.00
34482;BME280;20720;48.886;9.388;2023-08-01T05:14:28;96999.13;;;21.96;100.00
34482;BME280;20720;48.886;9.388;2023-08-01T05:16:53;97017.56;;;22.72;100.00
34482;BME280;20720;48.886;9.388;2023-08-01T05:19:19;97039.19;;;23.23;100.00
34482;BME280;20720;48.886;9.388;2023-08-01T05:21:44;97034.38;;;23.03;100.00
34482;BME280;20720;48.886;9.388;2023-08-01T05:24:09;97026.56;;;22.76;100.00
34482;BME280;20720;48.886;9.388;2023-08-01T05:26:36;97001.75;;;22.09;100.00
34482;BME280;20720;48.886;9.388;2023-08-01T05:29:01;96998.16;;;22.44;100.00
34482;BME280;20720;48.886;9.388;2023-08-01T05:31:26;96991.00;;;23.01;100.00
34482;BME280;20720;48.886;9.388;2023-08-01T05:33:51;96985.53;;;23.06;100.00
34482;BME280;20720;48.886;9.388;2023-08-01T05:36:17;97008.91;;;22.75;100.00
34482;BME280;20720;48.886;9.388;2023-08-01T05:38:42;97001.44;;;23.11;100.00
34482;BME280;20720;48.886;9.388;2023-08-01T05:41:07;96999.06;;;23.01;100.00
34482;BME280;20720;48.886;9.388;2023-08-01T05:43:33;96999.72;;;23.15;100.00
34482;BME280;20720;48.886;9.388;2023-08-01T05:45:58;97010.31;;;22.20;100.00
34482;BME280;20720;48.886;9.388;2023-08-01T05:48:23;97006.84;;;22.72;100.00
34482;BME280;20720;48.886;9.388;2023-08-01T05:50:48;97010.59;;;22.71;100.00
34482;BME280;20720;48.886;9.388;2023-08-01T05:53:14;97021.31;;;22.40;100.00
34482;BME280;20720;48.886;9.388;2023-08-01T05:55:39;97011.41;;;23.19;100.00
34482;BME280;20720;48.886;9.388;2023-08-01T05:58:04;97017.00;;;23.40;100.00
34482;BME280;20720;48.886;9.388;2023-08-01T06:00:29;97014.19;;;22.97;100.00
34482;BME280;20720;48.886;9.388;2023-08-01T06:02:55;96999.06;;;23.01;100.00
34482;BME280;20720;48.886;9.388;2023-08-01T06:05:21;97017.34;;;22.99;100.00
34482;BME280;20720;48.886;9.388;2023-08-01T06:07:46;97012.50;;;23.18;100.00
34482;BME280;20720;48.886;9.388;2023-08-01T06:10:11;97025.75;;;22.76;100.00
34482;BME280;20720;48.886;9.388;2023-08-01T06:12:36;97015.19;;;22.71;100.00
34482;BME280;20720;48.886;9.388;2023-08-01T06:15:03;97003.59;;;23.31;100.00
34482;BME280;20720;48.886;9.388;2023-08-01T06:17:28;97020.44;;;22.84;100.00
34482;BME280;20720;48.886;9.388;2023-08-01T06:19:53;97013.75;;;22.65;100.00
34482;BME280;20720;48.886;9.388;2023-08-01T06:22:19;97012.91;;;23.51;100.00
34482;BME280;20720;48.886;9.388;2023-08-01T06:24:45;97012.44;;;23.58;100.00
34482;BME280;20720;48.886;9.388;2023-08-01T06:27:10;97000.78;;;22.58;100.00
34482;BME280;20720;48.886;9.388;2023-08-01T06:29:35;97010.38;;;22.90;100.00
34482;BME280;20720;48.886;9.388;2023-08-01T06:32:02;97016.84;;;22.58;100.00
34482;BME280;20720;48.886;9.388;2023-08-01T06:34:27;97020.44;;;22.31;100.00
34482;BME280;20720;48.886;9.388;2023-08-01T06:36:53;97037.44;;;22.27;100.00
34482;BME280;20720;48.886;9.388;2023-08-01T06:39:18;97058.69;;;22.23;100.00
34482;BME280;20720;48.886;9.388;2023-08-01T06:41:43;97021.50;;;21.15;100.00
34482;BME280;20720;48.886;9.388;2023-08-01T06:44:08;97010.06;;;20.41;100.00
34482;BME280;20720;48.886;9.388;2023-08-01T06:46:34;97006.53;;;20.73;100.00
34482;BME280;20720;48.886;9.388;2023-08-01T06:48:59;97003.69;;;20.83;100.00
34482;BME280;20720;48.886;9.388;2023-08-01T06:51:24;97008.94;;;20.29;100.00
34482;BME280;20720;48.886;9.388;2023-08-01T06:53:49;97000.66;;;20.44;100.00
34482;BME280;20720;48.886;9.388;2023-08-01T06:56:15;96996.06;;;20.17;100.00
34482;BME280;20720;48.886;9.388;2023-08-01T06:58:40;96993.66;;;20.16;100.00
34482;BME280;20720;48.886;9.388;2023-08-01T07:01:05;96992.00;;;20.79;100.00
34482;BME280;20720;48.886;9.388;2023-08-01T07:03:31;96989.13;;;21.16;100.00
34482;BME280;20720;48.886;9.388;2023-08-01T07:05:56;96994.78;;;20.60;100.00
34482;BME280;20720;48.886;9.388;2023-08-01T07:08:21;96982.72;;;20.90;100.00
34482;BME280;20720;48.886;9.388;2023-08-01T07:10:46;96996.16;;;21.62;100.00
34482;BME280;20720;48.886;9.388;2023-08-01T07:13:12;96997.06;;;21.21;100.00
34482;BME280;20720;48.886;9.388;2023-08-01T07:15:37;96984.88;;;21.29;100.00
34482;BME280;20720;48.886;9.388;2023-08-01T07:18:02;96978.75;;;21.28;100.00
34482;BME280;20720;48.886;9.388;2023-08-01T07:20:28;96984.78;;;21.20;100.00
34482;BME280;20720;48.886;9.388;2023-08-01T07:22:53;96965.09;;;20.35;100.00
34482;BME280;20720;48.886;9.388;2023-08-01T07:25:18;96943.22;;;21.14;100.00
34482;BME280;20720;48.886;9.388;2023-08-01T07:27:44;96962.66;;;21.06;100.00
34482;BME280;20720;48.886;9.388;2023-08-01T07:30:10;96972.41;;;20.97;100.00
34482;BME280;20720;48.886;9.388;2023-08-01T07:32:36;96984.34;;;21.40;100.00
34482;BME280;20720;48.886;9.388;2023-08-01T07:35:03;96992.59;;;21.30;100.00
34482;BME280;20720;48.886;9.388;2023-08-01T07:37:29;96993.41;;;20.90;100.00
34482;BME280;20720;48.886;9.388;2023-08-01T07:39:55;96984.38;;;20.32;100.00
34482;BME280;20720;48.886;9.388;2023-08-01T07:42:21;96994.97;;;20.50;100.00
34482;BME280;20720;48.886;9.388;2023-08-01T07:44:46;96991.75;;;19.33;100.00
34482;BME280;20720;48.886;9.388;2023-08-01T07:47:11;96971.69;;;19.92;100.00
34482;BME280;20720;48.886;9.388;2023-08-01T07:49:37;96966.41;;;19.54;100.00
34482;BME280;20720;48.886;9.388;2023-08-01T07:52:02;96965.69;;;19.30;100.00
34482;BME280;20720;48.886;9.388;2023-08-01T07:54:27;96968.44;;;19.62;100.00
34482;BME280;20720;48.886;9.388;2023-08-01T07:56:53;96952.72;;;19.93;100.00
34482;BME280;20720;48.886;9.388;2023-08-01T07:59:18;96959.19;;;19.74;100.00
34482;BME280;20720;48.886;9.388;2023-08-01T08:01:43;96980.47;;;19.41;100.00
34482;BME280;20720;48.886;9.388;2023-08-01T08:04:08;96974.69;;;18.92;100.00
34482;BME280;20720;48.886;9.388;2023-08-01T08:06:34;96965.53;;;19.40;100.00
34482;BME280;20720;48.886;9.388;2023-08-01T08:08:59;96960.22;;;19.40;100.00
34482;BME280;20720;48.886;9.388;2023-08-01T08:11:24;96971.88;;;19.02;100.00
34482;BME280;20720;48.886;9.388;2023-08-01T08:13:49;96951.25;;;19.68;100.00
34482;BME280;20720;48.886;9.388;2023-08-01T08:16:15;96954.88;;;19.40;100.00
34482;BME280;20720;48.886;9.388;2023-08-01T08:18:40;96943.00;;;19.33;100.00
34482;BME280;20720;48.886;9.388;2023-08-01T08:21:05;96935.44;;;19.58;100.00
34482;BME280;20720;48.886;9.388;2023-08-01T08:23:31;96947.53;;;19.69;100.00
34482;BME280;20720;48.886;9.388;2023-08-01T08:25:56;96956.59;;;19.68;100.00
34482;BME280;20720;48.886;9.388;2023-08-01T08:28:31;96959.59;;;19.81;100.00
34482;BME280;20720;48.886;9.388;2023-08-01T08:30:58;96971.66;;;19.41;100.00
34482;BME280;20720;48.886;9.388;2023-08-01T08:33:24;96968.72;;;19.42;100.00
34482;BME280;20720;48.886;9.388;2023-08-01T08:35:50;96959.75;;;19.70;100.00
34482;BME280;20720;48.886;9.388;2023-08-01T08:38:17;96952.75;;;20.39;100.00
34482;BME280;20720;48.886;9.388;2023-08-01T08:40:52;96950.75;;;20.31;100.00
34482;BME280;20720;48.886;9.388;2023-08-01T08:43:20;96957.69;;;20.00;100.00
34482;BME280;20720;48.886;9.388;2023-08-01T08:45:47;96960.25;;;20.50;100.00
34482;BME280;20720;48.886;9.388;2023-08-01T08:48:17;96957.38;;;20.33;100.00
34482;BME280;20720;48.886;9.388;2023-08-01T08:50:45;96960.34;;;20.73;100.00
34482;BME280;20720;48.886;9.388;2023-08-01T08:53:11;96974.88;;;20.80;100.00
34482;BME280;20720;48.886;9.388;2023-08-01T08:55:39;96957.88;;;20.76;100.00
34482;BME280;20720;48.886;9.388;2023-08-01T08:58:04;96964.91;;;20.99;100.00
34482;BME280;20720;48.886;9.388;2023-08-01T09:00:30;96975.28;;;20.60;100.00
34482;BME280;20720;48.886;9.388;2023-08-01T09:02:55;96991.69;;;20.08;100.00
34482;BME280;20720;48.886;9.388;2023-08-01T09:05:24;96987.28;;;21.03;100.00
34482;BME280;20720;48.886;9.388;2023-08-01T09:07:55;96985.16;;;20.46;100.00
34482;BME280;20720;48.886;9.388;2023-08-01T09:10:21;96975.19;;;20.38;100.00
34482;BME280;20720;48.886;9.388;2023-08-01T09:12:47;96964.59;;;20.33;100.00
34482;BME280;20720;48.886;9.388;2023-08-01T09:15:12;96981.53;;;20.96;100.00
34482;BME280;20720;48.886;9.388;2023-08-01T09:17:51;96981.53;;;20.69;100.00
34482;BME280;20720;48.886;9.388;2023-08-01T09:20:16;96988.25;;;20.80;100.00
34482;BME280;20720;48.886;9.388;2023-08-01T09:22:45;96990.84;;;20.85;100.00
34482;BME280;20720;48.886;9.388;2023-08-01T09:25:12;96995.53;;;20.34;100.00
34482;BME280;20720;48.886;9.388;2023-08-01T09:27:38;96990.47;;;20.19;100.00
34482;BME280;20720;48.886;9.388;2023-08-01T09:30:09;96980.91;;;20.45;100.00
34482;BME280;20720;48.886;9.388;2023-08-01T09:32:34;96973.22;;;20.57;100.00
34482;BME280;20720;48.886;9.388;2023-08-01T09:35:00;96970.25;;;20.45;100.00
34482;BME280;20720;48.886;9.388;2023-08-01T09:37:25;96981.13;;;21.16;100.00
34482;BME280;20720;48.886;9.388;2023-08-01T09:39:54;96993.22;;;21.14;100.00
34482;BME280;20720;48.886;9.388;2023-08-01T09:42:20;96987.28;;;21.03;100.00
34482;BME280;20720;48.886;9.388;2023-08-01T09:44:46;96989.16;;;21.03;100.00
34482;BME280;20720;48.886;9.388;2023-08-01T09:47:14;96985.47;;;21.12;100.00
34482;BME280;20720;48.886;9.388;2023-08-01T09:49:48;97004.75;;;21.72;100.00
34482;BME280;20720;48.886;9.388;2023-08-01T09:52:14;97023.78;;;21.21;100.00
34482;BME280;20720;48.886;9.388;2023-08-01T09:54:39;97014.66;;;21.22;100.00
34482;BME280;20720;48.886;9.388;2023-08-01T09:57:05;97035.06;;;21.81;100.00
34482;BME280;20720;48.886;9.388;2023-08-01T09:59:32;97032.00;;;21.25;100.00
34482;BME280;20720;48.886;9.388;2023-08-01T10:01:58;97021.59;;;22.39;100.00
34482;BME280;20720;48.886;9.388;2023-08-01T10:04:30;97013.88;;;21.58;100.00
34482;BME280;20720;48.886;9.388;2023-08-01T10:07:00;97036.66;;;21.69;100.00
34482;BME280;20720;48.886;9.388;2023-08-01T10:09:26;97021.16;;;21.93;100.00
34482;BME280;20720;48.886;9.388;2023-08-01T10:11:56;97009.63;;;22.14;100.00
34482;BME280;20720;48.886;9.388;2023-08-01T10:14:23;97032.53;;;22.51;100.00
34482;BME280;20720;48.886;9.388;2023-08-01T10:16:49;97034.75;;;22.05;100.00
34482;BME280;20720;48.886;9.388;2023-08-01T10:19:15;97030.97;;;22.50;100.00
34482;BME280;20720;48.886;9.388;2023-08-01T10:21:42;97033.88;;;23.41;100.00
34482;BME280;20720;48.886;9.388;2023-08-01T10:24:08;97043.31;;;22.90;100.00
34482;BME280;20720;48.886;9.388;2023-08-01T10:26:34;97049.44;;;22.82;100.00
34482;BME280;20720;48.886;9.388;2023-08-01T10:29:00;97052.13;;;22.82;100.00
34482;BME280;20720;48.886;9.388;2023-08-01T10:31:27;97048.59;;;23.12;100.00
34482;BME280;20720;48.886;9.388;2023-08-01T10:34:06;97054.75;;;22.52;100.00
34482;BME280;20720;48.886;9.388;2023-08-01T10:36:32;97059.66;;;21.92;100.00
34482;BME280;20720;48.886;9.388;2023-08-01T10:39:00;97049.94;;;22.62;100.00
34482;BME280;20720;48.886;9.388;2023-08-01T10:41:26;97056.53;;;22.56;100.00
34482;BME280;20720;48.886;9.388;2023-08-01T10:46:57;97051.22;;;23.34;100.00
34482;BME280;20720;48.886;9.388;2023-08-01T10:49:42;97073.25;;;24.13;100.00
34482;BME280;20720;48.886;9.388;2023-08-01T10:54:43;97097.03;;;25.88;100.00
34482;BME280;20720;48.886;9.388;2023-08-01T10:57:08;97109.38;;;24.67;100.00
34482;BME280;20720;48.886;9.388;2023-08-01T10:59:34;97125.13;;;24.94;100.00
34482;BME280;20720;48.886;9.388;2023-08-01T11:02:00;97115.53;;;25.40;100.00
34482;BME280;20720;48.886;9.388;2023-08-01T11:04:26;97117.22;;;26.44;99.50
34482;BME280;20720;48.886;9.388;2023-08-01T11:06:54;97133.81;;;25.55;100.00
34482;BME280;20720;48.886;9.388;2023-08-01T11:09:25;97148.19;;;27.36;92.13
34482;BME280;20720;48.886;9.388;2023-08-01T11:11:55;97155.31;;;27.20;91.11
34482;BME280;20720;48.886;9.388;2023-08-01T11:14:25;97164.94;;;27.09;89.16
34482;BME280;20720;48.886;9.388;2023-08-01T11:16:50;97164.84;;;26.72;89.05
34482;BME280;20720;48.886;9.388;2023-08-01T11:19:25;97173.53;;;26.37;84.12
34482;BME280;20720;48.886;9.388;2023-08-01T11:21:51;97170.63;;;27.16;81.75
34482;BME280;20720;48.886;9.388;2023-08-01T11:24:18;97179.66;;;27.32;81.10
34482;BME280;20720;48.886;9.388;2023-08-01T11:26:46;97172.81;;;25.69;84.70
34482;BME280;20720;48.886;9.388;2023-08-01T11:29:12;97177.66;;;26.75;86.70
34482;BME280;20720;48.886;9.388;2023-08-01T11:31:39;97177.03;;;24.86;84.78
34482;BME280;20720;48.886;9.388;2023-08-01T11:34:04;97183.81;;;26.14;84.54
34482;BME280;20720;48.886;9.388;2023-08-01T11:36:30;97187.69;;;27.20;73.73
34482;BME280;20720;48.886;9.388;2023-08-01T11:38:59;97194.94;;;26.74;78.40
34482;BME280;20720;48.886;9.388;2023-08-01T11:41:26;97189.63;;;26.66;75.70
34482;BME280;20720;48.886;9.388;2023-08-01T11:43:52;97203.19;;;27.67;71.38
34482;BME280;20720;48.886;9.388;2023-08-01T11:46:19;97199.16;;;27.98;70.21
34482;BME280;20720;48.886;9.388;2023-08-01T11:48:45;97189.22;;;28.77;67.25
34482;BME280;20720;48.886;9.388;2023-08-01T11:51:12;97214.66;;;27.52;72.88
34482;BME280;20720;48.886;9.388;2023-08-01T11:53:37;97197.59;;;27.16;71.23
34482;BME280;20720;48.886;9.388;2023-08-01T11:56:04;97219.72;;;27.66;70.09
34482;BME280;20720;48.886;9.388;2023-08-01T12:01:11;97216.72;;;26.69;68.15
34482;BME280;20720;48.886;9.388;2023-08-01T12:03:43;97226.66;;;26.77;71.59
34482;BME280;20720;48.886;9.388;2023-08-01T12:06:09;97225.25;;;27.57;66.54
34482;BME280;20720;48.886;9.388;2023-08-01T12:08:36;97223.53;;;26.87;66.54
34482;BME280;20720;48.886;9.388;2023-08-01T12:11:01;97226.88;;;28.70;62.20
34482;BME280;20720;48.886;9.388;2023-08-01T12:13:27;97234.25;;;29.56;58.42
34482;BME280;20720;48.886;9.388;2023-08-01T12:15:54;97222.03;;;28.00;61.34
34482;BME280;20720;48.886;9.388;2023-08-01T12:18:25;97229.44;;;26.19;67.30
34482;BME280;20720;48.886;9.388;2023-08-01T12:20:50;97226.41;;;27.03;67.81
34482;BME280;20720;48.886;9.388;2023-08-01T12:23:16;97218.94;;;27.53;66.88
34482;BME280;20720;48.886;9.388;2023-08-01T12:25:41;97229.19;;;27.27;64.63
34482;BME280;20720;48.886;9.388;2023-08-01T12:28:07;97234.69;;;28.36;60.89
34482;BME280;20720;48.886;9.388;2023-08-01T12:30:32;97234.00;;;28.63;58.44
34482;BME280;20720;48.886;9.388;2023-08-01T12:32:57;97221.34;;;29.50;55.82
34482;BME280;20720;48.886;9.388;2023-08-01T12:35:23;97239.06;;;26.90;61.59
34482;BME280;20720;48.886;9.388;2023-08-01T12:37:48;97226.25;;;27.53;63.18
34482;BME280;20720;48.886;9.388;2023-08-01T12:40:14;97229.28;;;29.43;59.56
34482;BME280;20720;48.886;9.388;2023-08-01T12:42:39;97229.72;;;30.57;55.67
34482;BME280;20720;48.886;9.388;2023-08-01T12:45:05;97234.63;;;30.33;53.94
34482;BME280;20720;48.886;9.388;2023-08-01T12:47:30;97242.81;;;29.58;54.16
34482;BME280;20720;48.886;9.388;2023-08-01T12:49:55;97239.09;;;29.63;54.45
34482;BME280;20720;48.886;9.388;2023-08-01T12:52:25;97230.91;;;29.16;55.17